sensor_id;sensor_type;location;lat;lon;timestamp;P1;durP1;ratioP1;P2;durP2;ratioP2
17818;SDS011;9034;50.284;19.310;2023-12-22T00:00:33;10.70;;;3.72;;
17818;SDS011;9034;50.284;19.310;2023-12-22T00:01:35;6.50;;;3.70;;
17818;SDS011;9034;50.284;19.310;2023-12-22T00:02:38;9.52;;;4.15;;
17818;SDS011;9034;50.284;19.310;2023-12-22T00:03:40;8.32;;;3.38;;
17818;SDS011;9034;50.284;19.310;2023-12-22T00:04:43;7.70;;;3.38;;
17818;SDS011;9034;50.284;19.310;2023-12-22T00:05:45;10.82;;;3.67;;
17818;SDS011;9034;50.284;19.310;2023-12-22T00:06:48;11.73;;;4.38;;
17818;SDS011;9034;50.284;19.310;2023-12-22T00:07:50;8.40;;;3.13;;
17818;SDS011;9034;50.284;19.310;2023-12-22T00:08:53;13.35;;;4.25;;
17818;SDS011;9034;50.284;19.310;2023-12-22T00:09:55;11.63;;;3.90;;
17818;SDS011;9034;50.284;19.310;2023-12-22T00:10:59;7.53;;;3.15;;
17818;SDS011;9034;50.284;19.310;2023-12-22T00:12:01;5.55;;;2.33;;
17818;SDS011;9034;50.284;19.310;2023-12-22T00:13:05;5.82;;;2.72;;
17818;SDS011;9034;50.284;19.310;2023-12-22T00:14:06;7.78;;;3.60;;
17818;SDS011;9034;50.284;19.310;2023-12-22T00:15:10;5.40;;;2.70;;
17818;SDS011;9034;50.284;19.310;2023-12-22T00:16:12;8.57;;;3.25;;
17818;SDS011;9034;50.284;19.310;2023-12-22T00:17:15;8.65;;;2.92;;
17818;SDS011;9034;50.284;19.310;2023-12-22T00:18:17;6.55;;;2.90;;
17818;SDS011;9034;50.284;19.310;2023-12-22T00:19:23;6.30;;;2.20;;
17818;SDS011;9034;50.284;19.310;2023-12-22T00:20:26;6.45;;;2.63;;
17818;SDS011;9034;50.284;19.310;2023-12-22T00:21:28;6.47;;;3.15;;
17818;SDS011;9034;50.284;19.310;2023-12-22T00:22:30;5.72;;;2.95;;
17818;SDS011;9034;50.284;19.310;2023-12-22T00:23:32;11.55;;;2.92;;
17818;SDS011;9034;50.284;19.310;2023-12-22T00:24:37;11.85;;;2.72;;
17818;SDS011;9034;50.284;19.310;2023-12-22T00:25:40;4.90;;;2.45;;
17818;SDS011;9034;50.284;19.310;2023-12-22T00:26:44;6.78;;;2.75;;
17818;SDS011;9034;50.284;19.310;2023-12-22T00:27:47;6.43;;;2.42;;
17818;SDS011;9034;50.284;19.310;2023-12-22T00:28:49;5.47;;;2.75;;
17818;SDS011;9034;50.284;19.310;2023-12-22T00:29:52;8.05;;;3.13;;
17818;SDS011;9034;50.284;19.310;2023-12-22T00:30:54;8.57;;;2.47;;
17818;SDS011;9034;50.284;19.310;2023-12-22T00:31:57;5.68;;;2.65;;
17818;SDS011;9034;50.284;19.310;2023-12-22T00:32:59;6.25;;;2.70;;
17818;SDS011;9034;50.284;19.310;2023-12-22T00:34:02;9.02;;;3.55;;
17818;SDS011;9034;50.284;19.310;2023-12-22T00:35:04;6.75;;;2.40;;
17818;SDS011;9034;50.284;19.310;2023-12-22T00:36:08;6.55;;;2.65;;
17818;SDS011;9034;50.284;19.310;2023-12-22T00:37:10;7.00;;;2.30;;
17818;SDS011;9034;50.284;19.310;2023-12-22T00:38:13;5.47;;;2.72;;
17818;SDS011;9034;50.284;19.310;2023-12-22T00:39:15;6.25;;;2.92;;
17818;SDS011;9034;50.284;19.310;2023-12-22T00:40:18;4.75;;;2.85;;
17818;SDS011;9034;50.284;19.310;2023-12-22T00:41:20;3.47;;;2.55;;
17818;SDS011;9034;50.284;19.310;2023-12-22T00:42:25;6.05;;;2.67;;
17818;SDS011;9034;50.284;19.310;2023-12-22T00:43:27;6.18;;;2.50;;
17818;SDS011;9034;50.284;19.310;2023-12-22T00:44:30;6.35;;;2.85;;
17818;SDS011;9034;50.284;19.310;2023-12-22T00:45:32;5.07;;;2.83;;
17818;SDS011;9034;50.284;19.310;2023-12-22T00:46:35;3.65;;;2.30;;
17818;SDS011;9034;50.284;19.310;2023-12-22T00:47:37;6.05;;;2.78;;
17818;SDS011;9034;50.284;19.310;2023-12-22T00:48:40;5.05;;;2.67;;
17818;SDS011;9034;50.284;19.310;2023-12-22T00:49:42;6.25;;;2.60;;
17818;SDS011;9034;50.284;19.310;2023-12-22T00:50:45;8.52;;;3.05;;
17818;SDS011;9034;50.284;19.310;2023-12-22T00:51:50;6.28;;;2.40;;
17818;SDS011;9034;50.284;19.310;2023-12-22T00:52:52;8.20;;;2.78;;
17818;SDS011;9034;50.284;19.310;2023-12-22T00:53:54;8.77;;;2.63;;
17818;SDS011;9034;50.284;19.310;2023-12-22T00:54:57;5.47;;;2.80;;
17818;SDS011;9034;50.284;19.310;2023-12-22T00:55:59;5.95;;;2.63;;
17818;SDS011;9034;50.284;19.310;2023-12-22T00:57:03;8.30;;;3.10;;
17818;SDS011;9034;50.284;19.310;2023-12-22T00:58:06;6.50;;;2.47;;
17818;SDS011;9034;50.284;19.310;2023-12-22T00:59:08;6.78;;;2.70;;
17818;SDS011;9034;50.284;19.310;2023-12-22T01:00:13;6.00;;;2.20;;
17818;SDS011;9034;50.284;19.310;2023-12-22T01:01:15;9.63;;;2.58;;
17818;SDS011;9034;50.284;19.310;2023-12-22T01:02:18;4.47;;;2.70;;
17818;SDS011;9034;50.284;19.310;2023-12-22T01:03:22;4.28;;;2.63;;
17818;SDS011;9034;50.284;19.310;2023-12-22T01:04:24;6.53;;;2.58;;
17818;SDS011;9034;50.284;19.310;2023-12-22T01:05:26;8.00;;;2.80;;
17818;SDS011;9034;50.284;19.310;2023-12-22T01:06:29;5.55;;;2.67;;
17818;SDS011;9034;50.284;19.310;2023-12-22T01:07:33;9.18;;;3.22;;
17818;SDS011;9034;50.284;19.310;2023-12-22T01:08:36;6.82;;;3.05;;
17818;SDS011;9034;50.284;19.310;2023-12-22T01:09:39;8.05;;;3.40;;
17818;SDS011;9034;50.284;19.310;2023-12-22T01:10:42;5.18;;;3.17;;
17818;SDS011;9034;50.284;19.310;2023-12-22T01:11:44;7.03;;;3.10;;
17818;SDS011;9034;50.284;19.310;2023-12-22T01:12:46;10.93;;;3.33;;
17818;SDS011;9034;50.284;19.310;2023-12-22T01:13:50;9.00;;;3.13;;
17818;SDS011;9034;50.284;19.310;2023-12-22T01:14:53;7.55;;;3.00;;
17818;SDS011;9034;50.284;19.310;2023-12-22T01:15:55;7.90;;;2.80;;
17818;SDS011;9034;50.284;19.310;2023-12-22T01:16:58;7.47;;;2.72;;
17818;SDS011;9034;50.284;19.310;2023-12-22T01:18:00;6.28;;;3.25;;
17818;SDS011;9034;50.284;19.310;2023-12-22T01:19:04;6.60;;;2.58;;
17818;SDS011;9034;50.284;19.310;2023-12-22T01:20:06;6.47;;;2.45;;
17818;SDS011;9034;50.284;19.310;2023-12-22T01:21:09;6.28;;;2.63;;
17818;SDS011;9034;50.284;19.310;2023-12-22T01:22:12;5.28;;;2.40;;
17818;SDS011;9034;50.284;19.310;2023-12-22T01:23:15;7.18;;;2.58;;
17818;SDS011;9034;50.284;19.310;2023-12-22T01:24:17;5.95;;;2.45;;
17818;SDS011;9034;50.284;19.310;2023-12-22T01:25:20;5.53;;;2.63;;
17818;SDS011;9034;50.284;19.310;2023-12-22T01:26:22;4.90;;;2.47;;
17818;SDS011;9034;50.284;19.310;2023-12-22T01:27:25;7.15;;;2.58;;
17818;SDS011;9034;50.284;19.310;2023-12-22T01:28:27;7.25;;;2.97;;
17818;SDS011;9034;50.284;19.310;2023-12-22T01:29:31;8.70;;;2.58;;
17818;SDS011;9034;50.284;19.310;2023-12-22T01:30:33;7.45;;;3.40;;
17818;SDS011;9034;50.284;19.310;2023-12-22T01:31:36;6.88;;;3.15;;
17818;SDS011;9034;50.284;19.310;2023-12-22T01:32:38;11.43;;;2.65;;
17818;SDS011;9034;50.284;19.310;2023-12-22T01:33:41;10.02;;;2.95;;
17818;SDS011;9034;50.284;19.310;2023-12-22T01:34:44;11.52;;;3.00;;
17818;SDS011;9034;50.284;19.310;2023-12-22T01:35:46;7.85;;;3.00;;
17818;SDS011;9034;50.284;19.310;2023-12-22T01:36:49;6.93;;;2.80;;
17818;SDS011;9034;50.284;19.310;2023-12-22T01:37:51;8.75;;;3.10;;
17818;SDS011;9034;50.284;19.310;2023-12-22T01:38:54;7.10;;;3.20;;
17818;SDS011;9034;50.284;19.310;2023-12-22T01:39:56;6.75;;;3.35;;
17818;SDS011;9034;50.284;19.310;2023-12-22T01:40:59;6.68;;;3.20;;
17818;SDS011;9034;50.284;19.310;2023-12-22T01:42:01;9.15;;;4.70;;
17818;SDS011;9034;50.284;19.310;2023-12-22T01:43:04;6.78;;;3.22;;
17818;SDS011;9034;50.284;19.310;2023-12-22T01:44:06;7.93;;;3.38;;
17818;SDS011;9034;50.284;19.310;2023-12-22T01:45:10;8.05;;;3.13;;
17818;SDS011;9034;50.284;19.310;2023-12-22T01:46:12;9.27;;;3.72;;
17818;SDS011;9034;50.284;19.310;2023-12-22T01:47:15;9.05;;;3.70;;
17818;SDS011;9034;50.284;19.310;2023-12-22T01:48:17;10.77;;;3.28;;
17818;SDS011;9034;50.284;19.310;2023-12-22T01:49:20;5.13;;;2.80;;
17818;SDS011;9034;50.284;19.310;2023-12-22T01:50:23;5.88;;;2.70;;
17818;SDS011;9034;50.284;19.310;2023-12-22T01:51:26;8.95;;;3.33;;
17818;SDS011;9034;50.284;19.310;2023-12-22T01:52:28;8.00;;;3.10;;
17818;SDS011;9034;50.284;19.310;2023-12-22T01:53:30;5.50;;;2.40;;
17818;SDS011;9034;50.284;19.310;2023-12-22T01:54:37;9.38;;;2.50;;
17818;SDS011;9034;50.284;19.310;2023-12-22T01:55:39;7.88;;;2.97;;
17818;SDS011;9034;50.284;19.310;2023-12-22T01:56:42;6.03;;;3.00;;
17818;SDS011;9034;50.284;19.310;2023-12-22T01:57:44;8.18;;;2.92;;
17818;SDS011;9034;50.284;19.310;2023-12-22T01:58:49;7.05;;;3.20;;
17818;SDS011;9034;50.284;19.310;2023-12-22T01:59:53;5.95;;;2.63;;
17818;SDS011;9034;50.284;19.310;2023-12-22T02:00:58;6.03;;;2.97;;
17818;SDS011;9034;50.284;19.310;2023-12-22T02:02:04;6.15;;;3.33;;
17818;SDS011;9034;50.284;19.310;2023-12-22T02:03:07;5.80;;;2.78;;
17818;SDS011;9034;50.284;19.310;2023-12-22T02:04:09;5.18;;;3.08;;
17818;SDS011;9034;50.284;19.310;2023-12-22T02:05:12;7.95;;;2.63;;
17818;SDS011;9034;50.284;19.310;2023-12-22T02:06:15;7.95;;;3.28;;
17818;SDS011;9034;50.284;19.310;2023-12-22T02:07:18;6.97;;;3.10;;
17818;SDS011;9034;50.284;19.310;2023-12-22T02:08:20;8.15;;;3.63;;
17818;SDS011;9034;50.284;19.310;2023-12-22T02:09:25;7.97;;;3.50;;
17818;SDS011;9034;50.284;19.310;2023-12-22T02:10:27;7.65;;;2.88;;
17818;SDS011;9034;50.284;19.310;2023-12-22T02:11:30;4.85;;;3.03;;
17818;SDS011;9034;50.284;19.310;2023-12-22T02:12:33;6.97;;;3.08;;
17818;SDS011;9034;50.284;19.310;2023-12-22T02:13:37;8.85;;;3.15;;
17818;SDS011;9034;50.284;19.310;2023-12-22T02:14:39;8.77;;;2.70;;
17818;SDS011;9034;50.284;19.310;2023-12-22T02:15:42;6.05;;;2.65;;
17818;SDS011;9034;50.284;19.310;2023-12-22T02:16:48;5.60;;;2.20;;
17818;SDS011;9034;50.284;19.310;2023-12-22T02:17:55;4.43;;;2.50;;
17818;SDS011;9034;50.284;19.310;2023-12-22T02:19:04;9.20;;;2.90;;
17818;SDS011;9034;50.284;19.310;2023-12-22T02:20:11;6.70;;;2.22;;
17818;SDS011;9034;50.284;19.310;2023-12-22T02:21:15;7.43;;;2.28;;
17818;SDS011;9034;50.284;19.310;2023-12-22T02:22:17;6.07;;;2.33;;
17818;SDS011;9034;50.284;19.310;2023-12-22T02:23:22;4.95;;;2.67;;
17818;SDS011;9034;50.284;19.310;2023-12-22T02:24:24;6.45;;;2.83;;
17818;SDS011;9034;50.284;19.310;2023-12-22T02:25:27;4.55;;;2.58;;
17818;SDS011;9034;50.284;19.310;2023-12-22T02:26:32;6.82;;;3.00;;
17818;SDS011;9034;50.284;19.310;2023-12-22T02:27:38;6.95;;;2.95;;
17818;SDS011;9034;50.284;19.310;2023-12-22T02:28:42;8.75;;;4.10;;
17818;SDS011;9034;50.284;19.310;2023-12-22T02:29:48;7.78;;;3.30;;
17818;SDS011;9034;50.284;19.310;2023-12-22T02:30:52;6.97;;;3.17;;
17818;SDS011;9034;50.284;19.310;2023-12-22T02:31:57;5.75;;;2.17;;
17818;SDS011;9034;50.284;19.310;2023-12-22T02:33:01;6.40;;;2.72;;
17818;SDS011;9034;50.284;19.310;2023-12-22T02:34:07;6.03;;;2.97;;
17818;SDS011;9034;50.284;19.310;2023-12-22T02:35:15;6.15;;;2.30;;
17818;SDS011;9034;50.284;19.310;2023-12-22T02:36:19;3.38;;;2.42;;
17818;SDS011;9034;50.284;19.310;2023-12-22T02:37:23;4.07;;;2.30;;
17818;SDS011;9034;50.284;19.310;2023-12-22T02:38:28;6.25;;;2.28;;
17818;SDS011;9034;50.284;19.310;2023-12-22T02:39:30;3.90;;;1.98;;
17818;SDS011;9034;50.284;19.310;2023-12-22T02:40:32;5.53;;;2.30;;
17818;SDS011;9034;50.284;19.310;2023-12-22T02:41:37;5.00;;;2.40;;
17818;SDS011;9034;50.284;19.310;2023-12-22T02:42:39;3.75;;;2.00;;
17818;SDS011;9034;50.284;19.310;2023-12-22T02:43:41;5.43;;;2.50;;
17818;SDS011;9034;50.284;19.310;2023-12-22T02:44:45;3.97;;;2.05;;
17818;SDS011;9034;50.284;19.310;2023-12-22T02:45:49;4.53;;;2.70;;
17818;SDS011;9034;50.284;19.310;2023-12-22T02:46:52;6.88;;;2.55;;
17818;SDS011;9034;50.284;19.310;2023-12-22T02:47:54;6.63;;;2.70;;
17818;SDS011;9034;50.284;19.310;2023-12-22T02:48:57;5.82;;;2.40;;
17818;SDS011;9034;50.284;19.310;2023-12-22T02:49:59;6.78;;;2.63;;
17818;SDS011;9034;50.284;19.310;2023-12-22T02:51:03;7.65;;;2.53;;
17818;SDS011;9034;50.284;19.310;2023-12-22T02:52:07;4.43;;;2.00;;
17818;SDS011;9034;50.284;19.310;2023-12-22T02:53:10;6.13;;;2.03;;
17818;SDS011;9034;50.284;19.310;2023-12-22T02:54:13;6.10;;;2.45;;
17818;SDS011;9034;50.284;19.310;2023-12-22T02:55:16;7.57;;;2.47;;
17818;SDS011;9034;50.284;19.310;2023-12-22T02:56:18;3.30;;;1.80;;
17818;SDS011;9034;50.284;19.310;2023-12-22T02:57:21;3.92;;;2.10;;
17818;SDS011;9034;50.284;19.310;2023-12-22T02:58:23;3.17;;;1.80;;
17818;SDS011;9034;50.284;19.310;2023-12-22T02:59:26;5.43;;;1.92;;
17818;SDS011;9034;50.284;19.310;2023-12-22T03:00:30;4.20;;;2.17;;
17818;SDS011;9034;50.284;19.310;2023-12-22T03:01:33;8.82;;;2.50;;
17818;SDS011;9034;50.284;19.310;2023-12-22T03:02:35;7.45;;;2.25;;
17818;SDS011;9034;50.284;19.310;2023-12-22T03:03:38;4.78;;;2.00;;
17818;SDS011;9034;50.284;19.310;2023-12-22T03:04:40;4.80;;;1.85;;
17818;SDS011;9034;50.284;19.310;2023-12-22T03:05:42;4.78;;;2.30;;
17818;SDS011;9034;50.284;19.310;2023-12-22T03:06:45;5.82;;;2.17;;
17818;SDS011;9034;50.284;19.310;2023-12-22T03:07:47;4.70;;;2.10;;
17818;SDS011;9034;50.284;19.310;2023-12-22T03:08:50;5.28;;;2.22;;
17818;SDS011;9034;50.284;19.310;2023-12-22T03:09:54;8.50;;;2.20;;
17818;SDS011;9034;50.284;19.310;2023-12-22T03:10:57;5.45;;;2.25;;
17818;SDS011;9034;50.284;19.310;2023-12-22T03:11:59;7.78;;;2.20;;
17818;SDS011;9034;50.284;19.310;2023-12-22T03:13:03;5.57;;;2.55;;
17818;SDS011;9034;50.284;19.310;2023-12-22T03:14:05;5.80;;;1.83;;
17818;SDS011;9034;50.284;19.310;2023-12-22T03:15:08;7.55;;;2.55;;
17818;SDS011;9034;50.284;19.310;2023-12-22T03:16:11;6.78;;;2.20;;
17818;SDS011;9034;50.284;19.310;2023-12-22T03:17:13;5.32;;;2.30;;
17818;SDS011;9034;50.284;19.310;2023-12-22T03:18:16;4.05;;;2.33;;
17818;SDS011;9034;50.284;19.310;2023-12-22T03:19:19;5.25;;;2.33;;
17818;SDS011;9034;50.284;19.310;2023-12-22T03:20:21;5.28;;;2.10;;
17818;SDS011;9034;50.284;19.310;2023-12-22T03:21:24;8.77;;;2.38;;
17818;SDS011;9034;50.284;19.310;2023-12-22T03:23:44;9.48;;;2.83;;
17818;SDS011;9034;50.284;19.310;2023-12-22T03:24:46;5.57;;;2.40;;
17818;SDS011;9034;50.284;19.310;2023-12-22T03:25:50;4.13;;;2.15;;
17818;SDS011;9034;50.284;19.310;2023-12-22T03:26:52;3.70;;;1.80;;
17818;SDS011;9034;50.284;19.310;2023-12-22T03:27:54;5.13;;;2.38;;
17818;SDS011;9034;50.284;19.310;2023-12-22T03:28:57;6.38;;;2.50;;
17818;SDS011;9034;50.284;19.310;2023-12-22T03:29:59;6.05;;;2.83;;
17818;SDS011;9034;50.284;19.310;2023-12-22T03:31:03;6.60;;;2.60;;
17818;SDS011;9034;50.284;19.310;2023-12-22T03:32:05;6.78;;;2.83;;
17818;SDS011;9034;50.284;19.310;2023-12-22T03:33:08;5.85;;;2.50;;
17818;SDS011;9034;50.284;19.310;2023-12-22T03:34:10;5.57;;;2.58;;
17818;SDS011;9034;50.284;19.310;2023-12-22T03:35:14;5.75;;;2.20;;
17818;SDS011;9034;50.284;19.310;2023-12-22T03:36:15;7.68;;;2.95;;
17818;SDS011;9034;50.284;19.310;2023-12-22T03:37:18;6.95;;;2.70;;
17818;SDS011;9034;50.284;19.310;2023-12-22T03:38:20;6.72;;;2.47;;
17818;SDS011;9034;50.284;19.310;2023-12-22T03:39:23;5.32;;;3.03;;
17818;SDS011;9034;50.284;19.310;2023-12-22T03:40:25;6.95;;;3.17;;
17818;SDS011;9034;50.284;19.310;2023-12-22T03:41:30;9.85;;;3.25;;
17818;SDS011;9034;50.284;19.310;2023-12-22T03:42:32;5.75;;;2.90;;
17818;SDS011;9034;50.284;19.310;2023-12-22T03:43:33;8.65;;;3.85;;
17818;SDS011;9034;50.284;19.310;2023-12-22T03:44:36;6.72;;;3.00;;
17818;SDS011;9034;50.284;19.310;2023-12-22T03:45:38;8.90;;;3.10;;
17818;SDS011;9034;50.284;19.310;2023-12-22T03:46:41;4.50;;;2.42;;
17818;SDS011;9034;50.284;19.310;2023-12-22T03:47:43;6.63;;;3.17;;
17818;SDS011;9034;50.284;19.310;2023-12-22T03:48:46;8.68;;;3.28;;
17818;SDS011;9034;50.284;19.310;2023-12-22T03:49:48;8.98;;;3.20;;
17818;SDS011;9034;50.284;19.310;2023-12-22T03:50:51;6.97;;;2.78;;
17818;SDS011;9034;50.284;19.310;2023-12-22T03:51:53;8.40;;;2.67;;
17818;SDS011;9034;50.284;19.310;2023-12-22T03:52:55;8.82;;;3.03;;
17818;SDS011;9034;50.284;19.310;2023-12-22T03:53:58;5.60;;;2.42;;
17818;SDS011;9034;50.284;19.310;2023-12-22T03:55:00;7.72;;;2.95;;
17818;SDS011;9034;50.284;19.310;2023-12-22T03:56:06;6.25;;;2.33;;
17818;SDS011;9034;50.284;19.310;2023-12-22T03:57:10;7.55;;;2.80;;
17818;SDS011;9034;50.284;19.310;2023-12-22T03:58:12;7.45;;;2.55;;
17818;SDS011;9034;50.284;19.310;2023-12-22T03:59:15;6.65;;;3.03;;
17818;SDS011;9034;50.284;19.310;2023-12-22T04:00:20;7.25;;;3.03;;
17818;SDS011;9034;50.284;19.310;2023-12-22T04:01:22;6.03;;;3.17;;
17818;SDS011;9034;50.284;19.310;2023-12-22T04:02:25;7.25;;;3.17;;
17818;SDS011;9034;50.284;19.310;2023-12-22T04:03:27;10.68;;;3.10;;
17818;SDS011;9034;50.284;19.310;2023-12-22T04:04:30;8.85;;;2.60;;
17818;SDS011;9034;50.284;19.310;2023-12-22T04:05:32;7.65;;;2.50;;
17818;SDS011;9034;50.284;19.310;2023-12-22T04:06:37;6.40;;;2.30;;
17818;SDS011;9034;50.284;19.310;2023-12-22T04:07:39;6.75;;;2.58;;
17818;SDS011;9034;50.284;19.310;2023-12-22T04:08:42;6.57;;;2.85;;
17818;SDS011;9034;50.284;19.310;2023-12-22T04:09:44;8.25;;;3.10;;
17818;SDS011;9034;50.284;19.310;2023-12-22T04:10:47;11.65;;;3.30;;
17818;SDS011;9034;50.284;19.310;2023-12-22T04:11:49;7.72;;;3.08;;
17818;SDS011;9034;50.284;19.310;2023-12-22T04:12:53;9.02;;;2.88;;
17818;SDS011;9034;50.284;19.310;2023-12-22T04:13:55;8.48;;;2.83;;
17818;SDS011;9034;50.284;19.310;2023-12-22T04:14:58;11.32;;;3.55;;
17818;SDS011;9034;50.284;19.310;2023-12-22T04:16:00;8.20;;;3.10;;
17818;SDS011;9034;50.284;19.310;2023-12-22T04:17:06;6.68;;;2.78;;
17818;SDS011;9034;50.284;19.310;2023-12-22T04:18:07;8.65;;;3.10;;
17818;SDS011;9034;50.284;19.310;2023-12-22T04:19:11;9.52;;;3.08;;
17818;SDS011;9034;50.284;19.310;2023-12-22T04:20:13;8.57;;;3.67;;
17818;SDS011;9034;50.284;19.310;2023-12-22T04:21:16;8.07;;;2.83;;
17818;SDS011;9034;50.284;19.310;2023-12-22T04:22:18;10.75;;;3.67;;
17818;SDS011;9034;50.284;19.310;2023-12-22T04:23:20;9.73;;;3.83;;
17818;SDS011;9034;50.284;19.310;2023-12-22T04:24:22;8.57;;;3.35;;
17818;SDS011;9034;50.284;19.310;2023-12-22T04:25:24;8.00;;;2.90;;
17818;SDS011;9034;50.284;19.310;2023-12-22T04:26:27;7.38;;;3.47;;
17818;SDS011;9034;50.284;19.310;2023-12-22T04:27:29;7.28;;;2.80;;
17818;SDS011;9034;50.284;19.310;2023-12-22T04:28:33;6.47;;;2.60;;
17818;SDS011;9034;50.284;19.310;2023-12-22T04:29:35;7.90;;;2.67;;
17818;SDS011;9034;50.284;19.310;2023-12-22T04:30:38;5.38;;;2.80;;
17818;SDS011;9034;50.284;19.310;2023-12-22T04:31:40;6.05;;;2.38;;
17818;SDS011;9034;50.284;19.310;2023-12-22T04:32:43;9.45;;;2.42;;
17818;SDS011;9034;50.284;19.310;2023-12-22T04:33:45;6.80;;;2.85;;
17818;SDS011;9034;50.284;19.310;2023-12-22T04:34:47;7.70;;;3.10;;
17818;SDS011;9034;50.284;19.310;2023-12-22T04:35:50;8.77;;;3.00;;
17818;SDS011;9034;50.284;19.310;2023-12-22T04:36:52;6.97;;;3.00;;
17818;SDS011;9034;50.284;19.310;2023-12-22T04:37:56;9.10;;;2.90;;
17818;SDS011;9034;50.284;19.310;2023-12-22T04:38:57;8.05;;;2.63;;
17818;SDS011;9034;50.284;19.310;2023-12-22T04:40:00;8.15;;;2.67;;
17818;SDS011;9034;50.284;19.310;2023-12-22T04:41:02;8.90;;;2.47;;
17818;SDS011;9034;50.284;19.310;2023-12-22T04:42:04;2.78;;;1.70;;
17818;SDS011;9034;50.284;19.310;2023-12-22T04:43:07;1.60;;;1.50;;
17818;SDS011;9034;50.284;19.310;2023-12-22T04:44:10;4.95;;;1.40;;
17818;SDS011;9034;50.284;19.310;2023-12-22T04:45:13;8.30;;;2.10;;
17818;SDS011;9034;50.284;19.310;2023-12-22T04:46:16;6.32;;;1.27;;
17818;SDS011;9034;50.284;19.310;2023-12-22T04:47:19;3.17;;;1.35;;
17818;SDS011;9034;50.284;19.310;2023-12-22T04:48:20;4.22;;;1.35;;
17818;SDS011;9034;50.284;19.310;2023-12-22T04:49:23;5.50;;;1.30;;
17818;SDS011;9034;50.284;19.310;2023-12-22T04:50:25;3.40;;;1.30;;
17818;SDS011;9034;50.284;19.310;2023-12-22T04:51:28;13.20;;;1.70;;
17818;SDS011;9034;50.284;19.310;2023-12-22T05:04:45;7.25;;;2.40;;
17818;SDS011;9034;50.284;19.310;2023-12-22T05:05:48;5.57;;;2.08;;
17818;SDS011;9034;50.284;19.310;2023-12-22T05:06:50;8.13;;;1.70;;
17818;SDS011;9034;50.284;19.310;2023-12-22T05:07:53;6.93;;;2.38;;
17818;SDS011;9034;50.284;19.310;2023-12-22T05:08:55;6.38;;;1.75;;
17818;SDS011;9034;50.284;19.310;2023-12-22T05:09:59;8.68;;;2.38;;
17818;SDS011;9034;50.284;19.310;2023-12-22T05:11:01;4.13;;;2.08;;
17818;SDS011;9034;50.284;19.310;2023-12-22T05:12:05;5.05;;;1.90;;
17818;SDS011;9034;50.284;19.310;2023-12-22T05:13:08;6.97;;;2.42;;
17818;SDS011;9034;50.284;19.310;2023-12-22T05:14:10;13.20;;;2.55;;
17818;SDS011;9034;50.284;19.310;2023-12-22T05:15:13;8.57;;;2.00;;
17818;SDS011;9034;50.284;19.310;2023-12-22T05:16:19;10.30;;;2.28;;
17818;SDS011;9034;50.284;19.310;2023-12-22T05:17:24;12.73;;;2.50;;
17818;SDS011;9034;50.284;19.310;2023-12-22T05:18:27;6.97;;;3.08;;
17818;SDS011;9034;50.284;19.310;2023-12-22T05:19:29;4.05;;;1.90;;
17818;SDS011;9034;50.284;19.310;2023-12-22T05:20:35;8.23;;;2.40;;
17818;SDS011;9034;50.284;19.310;2023-12-22T05:21:37;12.48;;;2.42;;
17818;SDS011;9034;50.284;19.310;2023-12-22T05:22:40;9.32;;;2.42;;
17818;SDS011;9034;50.284;19.310;2023-12-22T05:23:42;7.40;;;1.77;;
17818;SDS011;9034;50.284;19.310;2023-12-22T05:24:48;3.85;;;1.77;;
17818;SDS011;9034;50.284;19.310;2023-12-22T05:25:50;2.13;;;1.77;;
17818;SDS011;9034;50.284;19.310;2023-12-22T05:26:54;7.55;;;1.70;;
17818;SDS011;9034;50.284;19.310;2023-12-22T05:27:56;4.55;;;1.70;;
17818;SDS011;9034;50.284;19.310;2023-12-22T05:29:07;6.15;;;2.05;;
17818;SDS011;9034;50.284;19.310;2023-12-22T05:30:10;6.93;;;1.85;;
17818;SDS011;9034;50.284;19.310;2023-12-22T05:31:16;5.72;;;2.33;;
17818;SDS011;9034;50.284;19.310;2023-12-22T05:32:18;7.03;;;2.63;;
17818;SDS011;9034;50.284;19.310;2023-12-22T05:33:21;5.68;;;2.03;;
17818;SDS011;9034;50.284;19.310;2023-12-22T05:34:24;4.28;;;2.63;;
17818;SDS011;9034;50.284;19.310;2023-12-22T05:35:27;9.73;;;2.40;;
17818;SDS011;9034;50.284;19.310;2023-12-22T05:36:31;4.78;;;2.40;;
17818;SDS011;9034;50.284;19.310;2023-12-22T05:37:34;6.38;;;3.15;;
17818;SDS011;9034;50.284;19.310;2023-12-22T05:38:37;6.95;;;3.00;;
17818;SDS011;9034;50.284;19.310;2023-12-22T05:39:40;6.78;;;3.42;;
17818;SDS011;9034;50.284;19.310;2023-12-22T05:40:43;4.22;;;2.40;;
17818;SDS011;9034;50.284;19.310;2023-12-22T05:41:46;6.43;;;3.10;;
17818;SDS011;9034;50.284;19.310;2023-12-22T05:42:48;8.20;;;3.17;;
17818;SDS011;9034;50.284;19.310;2023-12-22T05:43:51;10.93;;;3.47;;
17818;SDS011;9034;50.284;19.310;2023-12-22T05:44:54;9.98;;;3.33;;
17818;SDS011;9034;50.284;19.310;2023-12-22T05:45:57;5.13;;;2.80;;
17818;SDS011;9034;50.284;19.310;2023-12-22T05:46:59;7.13;;;3.15;;
17818;SDS011;9034;50.284;19.310;2023-12-22T05:48:02;3.97;;;2.28;;
17818;SDS011;9034;50.284;19.310;2023-12-22T05:49:05;8.13;;;2.65;;
17818;SDS011;9034;50.284;19.310;2023-12-22T05:50:09;10.10;;;2.50;;
17818;SDS011;9034;50.284;19.310;2023-12-22T05:51:14;8.57;;;2.70;;
17818;SDS011;9034;50.284;19.310;2023-12-22T05:52:19;7.65;;;3.08;;
17818;SDS011;9034;50.284;19.310;2023-12-22T05:53:21;6.35;;;2.47;;
17818;SDS011;9034;50.284;19.310;2023-12-22T05:54:24;5.57;;;2.72;;
17818;SDS011;9034;50.284;19.310;2023-12-22T05:55:27;7.70;;;3.30;;
17818;SDS011;9034;50.284;19.310;2023-12-22T05:56:30;8.85;;;2.83;;
17818;SDS011;9034;50.284;19.310;2023-12-22T05:57:32;8.40;;;2.92;;
17818;SDS011;9034;50.284;19.310;2023-12-22T05:58:35;6.72;;;3.35;;
17818;SDS011;9034;50.284;19.310;2023-12-22T05:59:43;10.27;;;3.47;;
17818;SDS011;9034;50.284;19.310;2023-12-22T06:00:47;9.35;;;3.25;;
17818;SDS011;9034;50.284;19.310;2023-12-22T06:01:52;10.18;;;3.53;;
17818;SDS011;9034;50.284;19.310;2023-12-22T06:02:54;11.02;;;3.10;;
17818;SDS011;9034;50.284;19.310;2023-12-22T06:03:57;8.65;;;2.90;;
17818;SDS011;9034;50.284;19.310;2023-12-22T06:05:01;7.55;;;3.08;;
17818;SDS011;9034;50.284;19.310;2023-12-22T06:06:05;8.98;;;3.05;;
17818;SDS011;9034;50.284;19.310;2023-12-22T06:07:07;6.47;;;3.00;;
17818;SDS011;9034;50.284;19.310;2023-12-22T06:08:12;8.57;;;2.90;;
17818;SDS011;9034;50.284;19.310;2023-12-22T06:09:13;9.00;;;3.25;;
17818;SDS011;9034;50.284;19.310;2023-12-22T06:10:17;15.18;;;3.53;;
17818;SDS011;9034;50.284;19.310;2023-12-22T06:11:19;12.63;;;3.42;;
17818;SDS011;9034;50.284;19.310;2023-12-22T06:12:22;10.27;;;3.58;;
17818;SDS011;9034;50.284;19.310;2023-12-22T06:13:23;8.00;;;3.33;;
17818;SDS011;9034;50.284;19.310;2023-12-22T06:14:26;8.82;;;3.20;;
17818;SDS011;9034;50.284;19.310;2023-12-22T06:15:29;9.57;;;3.97;;
17818;SDS011;9034;50.284;19.310;2023-12-22T06:16:31;11.50;;;4.22;;
17818;SDS011;9034;50.284;19.310;2023-12-22T06:17:33;7.40;;;4.40;;
17818;SDS011;9034;50.284;19.310;2023-12-22T06:18:36;9.82;;;3.65;;
17818;SDS011;9034;50.284;19.310;2023-12-22T06:19:38;15.50;;;3.80;;
17818;SDS011;9034;50.284;19.310;2023-12-22T06:20:42;7.18;;;3.63;;
17818;SDS011;9034;50.284;19.310;2023-12-22T06:21:43;5.57;;;3.35;;
17818;SDS011;9034;50.284;19.310;2023-12-22T06:22:46;11.43;;;3.85;;
17818;SDS011;9034;50.284;19.310;2023-12-22T06:23:50;9.73;;;3.95;;
17818;SDS011;9034;50.284;19.310;2023-12-22T06:24:53;5.88;;;3.42;;
17818;SDS011;9034;50.284;19.310;2023-12-22T06:25:54;14.10;;;4.45;;
17818;SDS011;9034;50.284;19.310;2023-12-22T06:26:58;9.13;;;4.05;;
17818;SDS011;9034;50.284;19.310;2023-12-22T06:28:00;10.70;;;3.88;;
17818;SDS011;9034;50.284;19.310;2023-12-22T06:29:02;10.52;;;4.80;;
17818;SDS011;9034;50.284;19.310;2023-12-22T06:30:06;14.40;;;4.38;;
17818;SDS011;9034;50.284;19.310;2023-12-22T06:31:16;10.07;;;3.90;;
17818;SDS011;9034;50.284;19.310;2023-12-22T06:32:19;11.18;;;3.78;;